Time;durP1;ratioP1;P1;durP2;ratioP2;P2;SDS_P1;SDS_P2;PMS_P1;PMS_P2;Temp;Humidity;BMP_temperature;BMP_pressure;BME280_temperature;BME280_humidity;BME280_pressure;Samples;Min_cycle;Max_cycle;Signal;HPM_P1;HPM_P2
2023/03/10 00:01:09;;;;;;;0.50;0.50;;;0.10;99.90;;;;;;5029005;28;21269;-80
2023/03/10 00:03:34;;;;;;;0.50;0.50;;;0.00;99.90;;;;;;5036971;28;20444;-80
2023/03/10 00:06:01;;;;;;;0.50;0.50;;;-0.20;99.90;;;;;;5024706;28;20482;-81
2023/03/10 00:08:27;;;;;;;0.60;0.60;;;-0.10;99.90;;;;;;5028141;28;20674;-80
2023/03/10 00:10:52;;;;;;;0.60;0.60;;;-0.10;99.90;;;;;;5012966;28;20446;-81
2023/03/10 00:13:18;;;;;;;0.50;0.50;;;0.00;99.90;;;;;;5037494;28;20714;-81
2023/03/10 00:15:43;;;;;;;0.50;0.50;;;-0.10;99.90;;;;;;5037914;28;20206;-80
2023/03/10 00:18:09;;;;;;;0.50;0.50;;;-0.20;99.90;;;;;;5028512;28;20668;-81
2023/03/10 00:20:34;;;;;;;0.50;0.50;;;-0.20;99.90;;;;;;5013055;28;20187;-80
2023/03/10 00:23:00;;;;;;;0.50;0.50;;;-0.20;99.90;;;;;;5026494;28;20187;-81
2023/03/10 00:25:25;;;;;;;0.50;0.50;;;-0.20;99.90;;;;;;5027043;28;20693;-80
2023/03/10 00:27:51;;;;;;;0.50;0.50;;;-0.30;99.90;;;;;;5011951;28;20249;-80
2023/03/10 00:30:17;;;;;;;0.50;0.50;;;-0.10;99.90;;;;;;5028386;28;20183;-80
2023/03/10 00:32:42;;;;;;;0.50;0.50;;;0.00;99.90;;;;;;5017877;28;20474;-80
2023/03/10 00:35:08;;;;;;;0.40;0.40;;;0.10;99.90;;;;;;5023830;28;20180;-80
2023/03/10 00:37:37;;;;;;;0.50;0.50;;;0.20;99.90;;;;;;5013781;28;20183;-81
2023/03/10 00:40:06;;;;;;;0.40;0.40;;;0.00;99.90;;;;;;5027849;28;20186;-81
2023/03/10 00:42:32;;;;;;;0.50;0.50;;;0.10;99.90;;;;;;5008522;28;20570;-80
2023/03/10 00:44:57;;;;;;;0.53;0.53;;;0.00;99.90;;;;;;5033095;28;20560;-81
2023/03/10 00:47:23;;;;;;;0.50;0.50;;;0.00;99.90;;;;;;5033396;28;20254;-80
2023/03/10 00:49:48;;;;;;;0.50;0.50;;;0.20;99.90;;;;;;5007740;28;20194;-80
2023/03/10 00:52:14;;;;;;;0.50;0.50;;;0.20;99.90;;;;;;5025053;28;20246;-81
2023/03/10 00:54:40;;;;;;;0.40;0.40;;;0.30;99.90;;;;;;5011536;28;20436;-81
2023/03/10 00:57:06;;;;;;;0.50;0.50;;;0.20;99.90;;;;;;5025955;28;20253;-80
2023/03/10 00:59:32;;;;;;;0.50;0.50;;;0.30;99.90;;;;;;5030498;28;20537;-80
2023/03/10 01:01:57;;;;;;;0.30;0.30;;;0.40;99.90;;;;;;5014497;28;20524;-80
2023/03/10 01:04:23;;;;;;;0.50;0.50;;;0.60;99.90;;;;;;5040212;28;20681;-80
2023/03/10 01:06:48;;;;;;;0.50;0.50;;;0.60;99.90;;;;;;5044851;28;20195;-80
2023/03/10 01:09:14;;;;;;;0.50;0.50;;;0.60;99.90;;;;;;5022282;28;20208;-81
2023/03/10 01:11:40;;;;;;;0.40;0.40;;;0.70;99.90;;;;;;5033806;28;20677;-80
2023/03/10 01:14:07;;;;;;;0.50;0.50;;;0.70;99.90;;;;;;5032028;28;20194;-81
2023/03/10 01:16:33;;;;;;;0.50;0.50;;;0.70;99.90;;;;;;5035105;28;20268;-80
2023/03/10 01:19:00;;;;;;;0.60;0.60;;;0.70;99.90;;;;;;5018811;28;21460;-80
2023/03/10 01:21:31;;;;;;;0.60;0.60;;;0.80;99.90;;;;;;5028513;28;20446;-80
2023/03/10 01:23:57;;;;;;;0.30;0.30;;;0.90;99.90;;;;;;5031443;28;20445;-80
2023/03/10 01:26:23;;;;;;;0.50;0.50;;;0.80;99.90;;;;;;5030188;28;20592;-80
2023/03/10 01:28:48;;;;;;;0.50;0.50;;;0.70;99.90;;;;;;5028566;28;21066;-80
2023/03/10 01:31:16;;;;;;;0.50;0.50;;;0.70;99.90;;;;;;5032698;28;20267;-80
2023/03/10 01:33:42;;;;;;;0.47;0.47;;;0.90;99.90;;;;;;5047155;28;20213;-80
2023/03/10 01:36:11;;;;;;;0.50;0.50;;;0.80;99.90;;;;;;5041186;28;20436;-80
2023/03/10 01:38:37;;;;;;;0.50;0.50;;;0.80;99.90;;;;;;5032579;28;20499;-80
2023/03/10 01:41:04;;;;;;;0.60;0.60;;;0.60;99.90;;;;;;5030971;28;21174;-80
2023/03/10 01:43:41;;;;;;;0.43;0.43;;;0.60;99.90;;;;;;5030817;28;20461;-80
2023/03/10 01:46:32;;;;;;;0.50;0.50;;;0.40;99.90;;;;;;5031482;28;20987;-80
2023/03/10 01:49:24;;;;;;;0.50;0.50;;;0.50;99.90;;;;;;5020005;28;20844;-80
2023/03/10 01:51:55;;;;;;;0.50;0.50;;;0.40;99.90;;;;;;5011775;28;20490;-80
2023/03/10 01:54:27;;;;;;;0.50;0.50;;;0.40;99.90;;;;;;5027900;28;20438;-80
2023/03/10 01:56:54;;;;;;;0.60;0.60;;;0.40;99.90;;;;;;5010438;28;20439;-81
2023/03/10 01:59:21;;;;;;;0.50;0.50;;;0.40;99.90;;;;;;5016148;28;20446;-80
2023/03/10 02:01:49;;;;;;;0.50;0.50;;;0.40;99.90;;;;;;5032523;28;20453;-80
2023/03/10 02:04:31;;;;;;;0.50;0.50;;;0.50;99.90;;;;;;5034794;28;20561;-80
2023/03/10 02:06:57;;;;;;;0.50;0.50;;;0.50;99.90;;;;;;5032229;28;20453;-80
2023/03/10 02:09:24;;;;;;;0.60;0.60;;;0.50;99.90;;;;;;5030925;28;20447;-80
2023/03/10 02:11:50;;;;;;;0.50;0.50;;;0.40;99.90;;;;;;5014849;28;20508;-81
2023/03/10 02:14:17;;;;;;;0.40;0.40;;;0.40;99.90;;;;;;5036408;28;20453;-80
2023/03/10 02:16:43;;;;;;;0.60;0.60;;;0.40;99.90;;;;;;5028586;28;20459;-80
2023/03/10 02:19:21;;;;;;;0.50;0.50;;;0.50;99.90;;;;;;5030229;28;20458;-80
2023/03/10 02:22:08;;;;;;;0.60;0.60;;;0.40;99.90;;;;;;5011499;28;20573;-80
2023/03/10 02:24:51;;;;;;;0.50;0.50;;;0.30;99.90;;;;;;5029476;28;20837;-80
2023/03/10 02:27:19;;;;;;;0.50;0.50;;;0.40;99.90;;;;;;5028684;28;20464;-81
2023/03/10 02:30:04;;;;;;;0.60;0.60;;;0.40;99.90;;;;;;5027596;28;20945;-80
2023/03/10 02:32:33;;;;;;;0.50;0.50;;;0.40;99.90;;;;;;5031430;28;20449;-80
2023/03/10 02:34:59;;;;;;;0.53;0.53;;;0.20;99.90;;;;;;5037152;28;20496;-80
2023/03/10 02:37:28;;;;;;;0.60;0.60;;;0.30;99.90;;;;;;5029886;28;20450;-80
2023/03/10 02:39:54;;;;;;;0.53;0.53;;;0.30;99.90;;;;;;5030918;28;20967;-80
2023/03/10 02:42:21;;;;;;;0.60;0.60;;;0.30;99.90;;;;;;5030941;28;20569;-80
2023/03/10 02:44:47;;;;;;;0.50;0.50;;;0.30;99.90;;;;;;5032637;28;20317;-81
2023/03/10 02:47:14;;;;;;;0.60;0.60;;;0.40;99.90;;;;;;5035811;28;20429;-80
2023/03/10 02:49:42;;;;;;;0.60;0.60;;;0.20;99.90;;;;;;5031612;28;20469;-80
2023/03/10 02:52:19;;;;;;;0.50;0.50;;;0.40;99.90;;;;;;5024915;28;20505;-81
2023/03/10 02:54:45;;;;;;;0.50;0.50;;;0.30;99.90;;;;;;5028622;28;20473;-80
2023/03/10 02:57:10;;;;;;;0.50;0.50;;;0.20;99.90;;;;;;5025680;28;20869;-81
2023/03/10 02:59:36;;;;;;;0.50;0.50;;;0.20;99.90;;;;;;5016706;28;20199;-81
2023/03/10 03:02:01;;;;;;;0.60;0.60;;;0.20;99.90;;;;;;5033082;28;20660;-80
2023/03/10 03:04:27;;;;;;;0.50;0.50;;;0.30;99.90;;;;;;5035089;28;20198;-80
2023/03/10 03:06:53;;;;;;;0.40;0.40;;;0.30;99.90;;;;;;5041672;28;20214;-80
2023/03/10 03:09:18;;;;;;;0.60;0.60;;;0.40;99.90;;;;;;5029894;28;20815;-80
2023/03/10 03:11:44;;;;;;;0.60;0.60;;;0.40;99.90;;;;;;5022529;28;20180;-80
2023/03/10 03:14:09;;;;;;;0.70;0.70;;;0.30;99.90;;;;;;5029831;28;20655;-80
2023/03/10 03:16:35;;;;;;;0.50;0.50;;;0.50;99.90;;;;;;5029215;28;20569;-80
2023/03/10 03:19:04;;;;;;;0.60;0.60;;;0.60;99.90;;;;;;5028147;28;20191;-80
2023/03/10 03:21:30;;;;;;;0.50;0.50;;;0.60;99.90;;;;;;5029679;28;20189;-80
2023/03/10 03:23:56;;;;;;;0.60;0.60;;;0.70;99.90;;;;;;5045173;28;20456;-80
2023/03/10 03:26:25;;;;;;;0.50;0.50;;;0.70;99.90;;;;;;5027105;28;20477;-80
2023/03/10 03:28:51;;;;;;;0.60;0.60;;;0.70;99.90;;;;;;5016477;28;20193;-80
2023/03/10 03:31:22;;;;;;;0.50;0.50;;;0.70;99.90;;;;;;5029032;28;20442;-80
2023/03/10 03:33:48;;;;;;;0.50;0.50;;;0.80;99.90;;;;;;5030902;28;20238;-80
2023/03/10 03:36:14;;;;;;;0.50;0.50;;;0.80;99.90;;;;;;5039251;28;20587;-80
2023/03/10 03:38:39;;;;;;;0.50;0.50;;;0.80;99.90;;;;;;5026571;28;20852;-80
2023/03/10 03:41:06;;;;;;;0.50;0.50;;;0.90;99.90;;;;;;5034602;28;20219;-80
2023/03/10 03:43:31;;;;;;;0.40;0.40;;;0.80;99.90;;;;;;5026752;28;20223;-80
2023/03/10 03:45:57;;;;;;;0.57;0.57;;;0.90;99.90;;;;;;5029208;28;20496;-80
2023/03/10 03:48:23;;;;;;;0.57;0.57;;;1.00;99.90;;;;;;5029583;28;20188;-80
2023/03/10 03:50:49;;;;;;;0.40;0.40;;;0.80;99.90;;;;;;5030706;28;20195;-80
2023/03/10 03:53:17;;;;;;;0.50;0.50;;;1.00;99.90;;;;;;5032597;28;20457;-80
2023/03/10 03:55:43;;;;;;;0.50;0.50;;;0.90;99.90;;;;;;5030252;28;20541;-80
2023/03/10 03:58:14;;;;;;;0.50;0.50;;;0.80;99.90;;;;;;5025955;28;20445;-80
2023/03/10 04:00:40;;;;;;;0.50;0.50;;;0.90;99.90;;;;;;5033049;28;20183;-80
2023/03/10 04:03:05;;;;;;;0.50;0.50;;;1.00;99.90;;;;;;5015497;28;20442;-80
2023/03/10 04:05:31;;;;;;;0.60;0.60;;;0.90;99.90;;;;;;5029807;28;20219;-79
2023/03/10 04:07:57;;;;;;;0.60;0.60;;;0.90;99.90;;;;;;5030547;28;20258;-80
2023/03/10 04:10:23;;;;;;;0.50;0.50;;;1.00;99.90;;;;;;5030288;28;20456;-80
2023/03/10 04:12:48;;;;;;;0.60;0.60;;;0.80;99.90;;;;;;5027903;28;20651;-80
2023/03/10 04:15:14;;;;;;;0.50;0.50;;;0.90;99.90;;;;;;5028696;28;20195;-79
2023/03/10 04:17:40;;;;;;;0.50;0.50;;;0.90;99.90;;;;;;5029704;28;20234;-80
2023/03/10 04:20:07;;;;;;;0.40;0.40;;;0.90;99.90;;;;;;5011215;28;20199;-80
2023/03/10 04:22:34;;;;;;;0.50;0.50;;;0.90;99.90;;;;;;5029427;28;20321;-80
2023/03/10 04:24:59;;;;;;;0.57;0.57;;;0.90;99.90;;;;;;5029109;28;20497;-80
2023/03/10 04:27:25;;;;;;;0.50;0.50;;;0.90;99.90;;;;;;5026075;28;20891;-80
2023/03/10 04:29:50;;;;;;;0.50;0.50;;;0.90;99.90;;;;;;5042856;28;20194;-80
2023/03/10 04:32:16;;;;;;;0.60;0.60;;;1.00;99.90;;;;;;5029203;28;20235;-80
2023/03/10 04:34:41;;;;;;;0.57;0.57;;;1.00;99.90;;;;;;5029108;28;20536;-80
2023/03/10 04:37:07;;;;;;;0.50;0.50;;;1.00;99.90;;;;;;5028422;28;20213;-80
2023/03/10 04:39:34;;;;;;;0.50;0.50;;;0.90;99.90;;;;;;5032998;28;20183;-80
2023/03/10 04:42:00;;;;;;;0.60;0.60;;;1.00;99.90;;;;;;5027932;28;20448;-80
2023/03/10 04:44:25;;;;;;;0.60;0.60;;;1.00;99.90;;;;;;5022708;28;20535;-80
2023/03/10 04:46:51;;;;;;;0.50;0.50;;;1.00;99.90;;;;;;5028326;28;20195;-80
2023/03/10 04:49:16;;;;;;;0.50;0.50;;;1.00;99.90;;;;;;5033549;28;20205;-80
2023/03/10 04:51:42;;;;;;;0.53;0.53;;;1.00;99.90;;;;;;5038480;28;20195;-80
2023/03/10 04:54:07;;;;;;;0.50;0.50;;;1.00;99.90;;;;;;5026501;28;20697;-80
2023/03/10 04:56:33;;;;;;;0.60;0.60;;;1.10;99.90;;;;;;5022469;28;20748;-80
2023/03/10 04:58:58;;;;;;;0.50;0.50;;;1.00;99.90;;;;;;5031298;28;20187;-80
2023/03/10 05:01:24;;;;;;;0.43;0.43;;;1.10;99.90;;;;;;5028056;28;20563;-80
2023/03/10 05:03:49;;;;;;;0.50;0.50;;;1.00;99.90;;;;;;5025322;28;20183;-80
2023/03/10 05:06:20;;;;;;;0.50;0.50;;;1.10;99.90;;;;;;5008340;28;20222;-79
2023/03/10 05:08:46;;;;;;;0.50;0.50;;;1.10;99.90;;;;;;5040984;28;20331;-80
2023/03/10 05:11:12;;;;;;;0.50;0.50;;;1.10;99.90;;;;;;5035271;28;20440;-80
2023/03/10 05:13:38;;;;;;;0.53;0.53;;;1.00;99.90;;;;;;5026612;28;20762;-80
2023/03/10 05:16:04;;;;;;;0.47;0.47;;;1.00;99.90;;;;;;5030937;28;20326;-80
2023/03/10 05:18:29;;;;;;;0.50;0.50;;;1.00;99.90;;;;;;5028345;28;20734;-80
2023/03/10 05:20:56;;;;;;;0.60;0.60;;;1.20;99.90;;;;;;5029373;28;21021;-80
2023/03/10 05:23:23;;;;;;;0.50;0.50;;;1.10;99.90;;;;;;5042833;28;20183;-80
2023/03/10 05:25:48;;;;;;;0.50;0.50;;;1.00;99.90;;;;;;5011945;28;20508;-80
2023/03/10 05:28:14;;;;;;;0.50;0.50;;;1.10;99.90;;;;;;5038698;28;20503;-80
2023/03/10 05:30:40;;;;;;;0.50;0.50;;;1.20;99.90;;;;;;5029923;28;20226;-80
2023/03/10 05:33:05;;;;;;;0.50;0.50;;;1.10;99.90;;;;;;5029116;28;20237;-80
2023/03/10 05:35:31;;;;;;;0.50;0.50;;;1.10;99.90;;;;;;5027562;28;20568;-80
2023/03/10 05:37:57;;;;;;;0.57;0.57;;;1.10;99.90;;;;;;5029338;28;20551;-80
2023/03/10 05:40:22;;;;;;;0.50;0.50;;;1.20;99.90;;;;;;5021595;28;20449;-80
2023/03/10 05:42:48;;;;;;;0.50;0.50;;;1.20;99.90;;;;;;5027704;28;20215;-80
2023/03/10 05:45:14;;;;;;;0.50;0.50;;;1.10;99.90;;;;;;5022590;28;20219;-81
2023/03/10 05:47:41;;;;;;;0.50;0.50;;;1.20;99.90;;;;;;5032854;28;20834;-81
2023/03/10 05:50:08;;;;;;;0.50;0.50;;;1.10;99.90;;;;;;5021253;28;20187;-80
2023/03/10 05:52:38;;;;;;;0.50;0.50;;;1.10;99.90;;;;;;5032411;28;20437;-80
2023/03/10 05:55:05;;;;;;;0.50;0.50;;;1.20;99.90;;;;;;5029926;28;20465;-80
2023/03/10 05:57:30;;;;;;;0.47;0.47;;;1.20;99.90;;;;;;5020603;28;20429;-80
2023/03/10 05:59:56;;;;;;;0.50;0.50;;;1.20;99.90;;;;;;5019022;28;20534;-80
2023/03/10 06:02:21;;;;;;;0.50;0.50;;;1.20;99.90;;;;;;5027625;28;20178;-80
2023/03/10 06:04:47;;;;;;;0.50;0.50;;;1.10;99.90;;;;;;5031864;28;20675;-80
2023/03/10 06:07:12;;;;;;;0.50;0.50;;;1.20;99.90;;;;;;5027609;28;20602;-80
2023/03/10 06:09:38;;;;;;;0.60;0.60;;;1.10;99.90;;;;;;5027546;28;20188;-80
2023/03/10 06:12:03;;;;;;;0.50;0.50;;;1.10;99.90;;;;;;5025398;28;20219;-81
2023/03/10 06:14:29;;;;;;;0.40;0.40;;;1.10;99.90;;;;;;5043210;28;20590;-80
2023/03/10 06:16:55;;;;;;;0.50;0.50;;;1.20;99.90;;;;;;5023765;28;20203;-80
2023/03/10 06:19:21;;;;;;;0.40;0.40;;;1.20;99.90;;;;;;5010699;28;20193;-81
2023/03/10 06:21:47;;;;;;;0.40;0.40;;;1.20;99.90;;;;;;5018761;28;20988;-80
2023/03/10 06:24:13;;;;;;;0.57;0.57;;;1.20;99.90;;;;;;5032349;28;20426;-81
2023/03/10 06:26:39;;;;;;;0.47;0.47;;;1.20;99.90;;;;;;5011617;28;20549;-80
2023/03/10 06:29:04;;;;;;;0.50;0.50;;;1.20;99.90;;;;;;5013436;28;21413;-80
2023/03/10 06:31:31;;;;;;;0.50;0.50;;;1.30;99.90;;;;;;5041451;28;20190;-80
2023/03/10 06:33:57;;;;;;;0.47;0.47;;;1.20;99.90;;;;;;5036246;28;20442;-81
2023/03/10 06:36:25;;;;;;;0.50;0.50;;;1.20;99.90;;;;;;5031883;28;20865;-80
2023/03/10 06:38:51;;;;;;;0.50;0.50;;;1.20;99.90;;;;;;5012470;28;20935;-80
2023/03/10 06:41:17;;;;;;;0.50;0.50;;;1.20;99.90;;;;;;5011204;28;20538;-79
2023/03/10 06:43:43;;;;;;;0.50;0.50;;;1.20;99.90;;;;;;5022189;28;20498;-80
2023/03/10 06:46:10;;;;;;;0.50;0.50;;;1.30;99.90;;;;;;5024681;28;20852;-80
2023/03/10 06:48:36;;;;;;;0.60;0.60;;;1.30;99.90;;;;;;5028861;28;20375;-80
2023/03/10 06:51:05;;;;;;;0.50;0.50;;;1.30;99.90;;;;;;5027629;28;20445;-80
2023/03/10 06:53:31;;;;;;;0.30;0.30;;;1.30;99.90;;;;;;5042721;28;20456;-80
2023/03/10 06:56:02;;;;;;;0.50;0.50;;;1.30;99.90;;;;;;5033577;28;20446;-79
2023/03/10 06:58:29;;;;;;;0.50;0.50;;;1.30;99.90;;;;;;5027250;28;21453;-79
2023/03/10 07:00:54;;;;;;;0.50;0.50;;;1.40;99.90;;;;;;5028126;28;20442;-80
2023/03/10 07:03:20;;;;;;;0.50;0.50;;;1.40;99.90;;;;;;5022148;28;20469;-79
2023/03/10 07:05:46;;;;;;;0.40;0.40;;;1.50;99.90;;;;;;5021279;28;20234;-79
2023/03/10 07:08:12;;;;;;;0.40;0.40;;;1.50;99.90;;;;;;5033440;28;20686;-80
2023/03/10 07:10:37;;;;;;;0.50;0.50;;;1.50;99.90;;;;;;5035135;28;20461;-79
2023/03/10 07:13:03;;;;;;;0.47;0.47;;;1.50;99.90;;;;;;5016290;28;20195;-79
2023/03/10 07:15:28;;;;;;;0.50;0.50;;;1.40;99.90;;;;;;5029898;28;20718;-80
2023/03/10 07:17:55;;;;;;;0.50;0.50;;;1.40;99.90;;;;;;5030954;28;20262;-79
2023/03/10 07:20:21;;;;;;;0.50;0.50;;;1.40;99.90;;;;;;5024378;28;20180;-79
2023/03/10 07:22:47;;;;;;;0.50;0.50;;;1.40;99.90;;;;;;5027220;28;20443;-80
2023/03/10 07:25:12;;;;;;;0.50;0.50;;;1.40;99.90;;;;;;5025910;28;20474;-80
2023/03/10 07:27:38;;;;;;;0.47;0.47;;;1.50;99.90;;;;;;5030886;28;20195;-79
2023/03/10 07:30:05;;;;;;;0.50;0.50;;;1.40;99.90;;;;;;5027400;28;20196;-79
2023/03/10 07:32:30;;;;;;;0.60;0.60;;;1.40;99.90;;;;;;5010326;28;20190;-77
2023/03/10 07:34:57;;;;;;;0.40;0.40;;;1.40;99.90;;;;;;5027510;28;20450;-78
2023/03/10 07:37:22;;;;;;;0.40;0.40;;;1.50;99.90;;;;;;5027598;28;20202;-78
2023/03/10 07:39:48;;;;;;;0.50;0.50;;;1.50;99.90;;;;;;5035707;28;20473;-78
2023/03/10 07:42:13;;;;;;;0.50;0.50;;;1.50;99.90;;;;;;5031584;28;20273;-78
2023/03/10 07:44:39;;;;;;;0.50;0.50;;;1.60;99.90;;;;;;5019258;28;20237;-78
2023/03/10 07:47:04;;;;;;;0.50;0.50;;;1.60;99.90;;;;;;5027861;28;20191;-78
2023/03/10 07:49:30;;;;;;;0.43;0.43;;;1.40;99.90;;;;;;5023700;28;20211;-78
2023/03/10 07:51:55;;;;;;;0.50;0.50;;;1.50;99.90;;;;;;5030081;28;20298;-79
2023/03/10 07:54:21;;;;;;;0.50;0.50;;;1.60;99.90;;;;;;5028112;28;20199;-79
2023/03/10 07:56:46;;;;;;;0.43;0.43;;;1.60;99.90;;;;;;5028490;28;20191;-79
2023/03/10 07:59:12;;;;;;;0.40;0.40;;;1.70;99.90;;;;;;5045741;28;20603;-79
2023/03/10 08:01:37;;;;;;;0.50;0.50;;;1.60;99.90;;;;;;5029598;28;20203;-78
2023/03/10 08:04:03;;;;;;;0.50;0.50;;;1.60;99.90;;;;;;5030395;28;20187;-79
2023/03/10 08:06:31;;;;;;;0.50;0.50;;;1.60;99.90;;;;;;5028647;28;20223;-79
2023/03/10 08:08:57;;;;;;;0.40;0.40;;;1.60;99.90;;;;;;5027009;28;20465;-79
2023/03/10 08:11:23;;;;;;;0.50;0.50;;;1.70;99.90;;;;;;5029779;28;20496;-79
2023/03/10 08:13:49;;;;;;;0.50;0.50;;;1.70;99.90;;;;;;5021659;28;20249;-79
2023/03/10 08:16:16;;;;;;;0.50;0.50;;;1.70;99.90;;;;;;5028012;28;20234;-79
2023/03/10 08:18:42;;;;;;;0.50;0.50;;;1.70;99.90;;;;;;5010657;28;20450;-79
2023/03/10 08:21:08;;;;;;;0.50;0.50;;;1.70;99.90;;;;;;5021374;28;20501;-79
2023/03/10 08:23:35;;;;;;;0.40;0.40;;;1.80;99.90;;;;;;5023830;28;20213;-78
2023/03/10 08:26:03;;;;;;;0.50;0.50;;;1.80;99.90;;;;;;5017226;28;20485;-79
2023/03/10 08:28:29;;;;;;;0.50;0.50;;;1.80;99.90;;;;;;5013932;28;20477;-79
2023/03/10 08:30:58;;;;;;;0.60;0.60;;;1.90;99.90;;;;;;5025428;28;20437;-79
2023/03/10 08:33:26;;;;;;;0.40;0.40;;;1.90;99.90;;;;;;5031847;28;20446;-79
2023/03/10 08:36:00;;;;;;;0.50;0.50;;;2.00;99.90;;;;;;5015869;28;20444;-79
2023/03/10 08:38:26;;;;;;;0.50;0.50;;;1.90;99.90;;;;;;5015900;28;20455;-79
2023/03/10 08:40:51;;;;;;;0.50;0.50;;;2.00;99.90;;;;;;5022247;28;20883;-79
2023/03/10 08:43:17;;;;;;;0.50;0.50;;;2.00;99.90;;;;;;5029214;28;20314;-79
2023/03/10 08:45:42;;;;;;;0.50;0.50;;;2.00;99.90;;;;;;5029736;28;20221;-79
2023/03/10 08:48:08;;;;;;;0.50;0.50;;;2.00;99.90;;;;;;5022742;28;20270;-80
2023/03/10 08:50:33;;;;;;;0.60;0.60;;;2.00;99.90;;;;;;5026635;28;20233;-79
2023/03/10 08:52:59;;;;;;;0.43;0.43;;;2.00;99.90;;;;;;5028242;28;20226;-79
2023/03/10 08:55:24;;;;;;;0.60;0.60;;;2.00;99.90;;;;;;5027231;28;20175;-79
2023/03/10 08:57:50;;;;;;;0.40;0.40;;;2.00;99.90;;;;;;5025782;28;20188;-80
2023/03/10 09:00:16;;;;;;;0.50;0.50;;;2.00;99.90;;;;;;5016291;28;20188;-78
2023/03/10 09:02:42;;;;;;;0.40;0.40;;;1.90;99.90;;;;;;5029703;28;20187;-78
2023/03/10 09:05:09;;;;;;;0.50;0.50;;;2.10;99.90;;;;;;5039927;28;20480;-79
2023/03/10 09:07:34;;;;;;;0.47;0.47;;;2.10;99.90;;;;;;5017992;28;20189;-79
2023/03/10 09:10:00;;;;;;;0.43;0.43;;;2.20;99.90;;;;;;5022928;28;20541;-79
2023/03/10 09:12:25;;;;;;;0.50;0.50;;;2.20;99.90;;;;;;5013590;28;20242;-79
2023/03/10 09:14:51;;;;;;;0.50;0.50;;;2.20;99.90;;;;;;5028003;28;20271;-80
2023/03/10 09:17:17;;;;;;;0.50;0.50;;;2.30;99.90;;;;;;5026514;28;20670;-80
2023/03/10 09:19:42;;;;;;;0.50;0.50;;;2.30;99.90;;;;;;5029469;28;20191;-80
2023/03/10 09:22:08;;;;;;;0.40;0.40;;;2.30;99.90;;;;;;5016988;28;20188;-81
2023/03/10 09:24:33;;;;;;;0.60;0.60;;;2.40;99.90;;;;;;5010314;28;20188;-81
2023/03/10 09:26:59;;;;;;;0.40;0.40;;;2.40;99.90;;;;;;5011017;28;20660;-80
2023/03/10 09:29:36;;;;;;;0.40;0.40;;;2.40;99.90;;;;;;5030511;28;20191;-80
2023/03/10 09:32:03;;;;;;;0.50;0.50;;;2.40;99.90;;;;;;5031171;28;20320;-81
2023/03/10 09:34:28;;;;;;;0.40;0.40;;;2.50;99.90;;;;;;5031040;28;20438;-81
2023/03/10 09:36:54;;;;;;;0.50;0.50;;;2.50;99.90;;;;;;5029437;28;20456;-81
2023/03/10 09:39:20;;;;;;;0.50;0.50;;;2.50;99.90;;;;;;5015140;28;20180;-80
2023/03/10 09:42:00;;;;;;;0.50;0.50;;;2.50;99.90;;;;;;5012416;28;20184;-80
2023/03/10 09:44:37;;;;;;;0.43;0.43;;;2.50;99.90;;;;;;5044670;28;20239;-80
2023/03/10 09:47:16;;;;;;;0.50;0.50;;;2.60;99.90;;;;;;5028820;28;20930;-80
2023/03/10 09:50:07;;;;;;;0.40;0.40;;;2.60;99.90;;;;;;5031443;28;20438;-80
2023/03/10 09:53:18;;;;;;;0.40;0.40;;;2.80;99.90;;;;;;5022877;28;20442;-80
2023/03/10 09:55:44;;;;;;;0.40;0.40;;;2.80;99.90;;;;;;5032744;28;20422;-79
2023/03/10 09:58:34;;;;;;;0.40;0.40;;;2.90;99.90;;;;;;5031407;28;20438;-80
2023/03/10 10:01:02;;;;;;;0.40;0.40;;;3.00;99.90;;;;;;5026696;28;20438;-79
2023/03/10 10:03:34;;;;;;;0.40;0.40;;;3.10;99.90;;;;;;5015885;28;20434;-79
2023/03/10 10:06:02;;;;;;;0.30;0.30;;;3.10;99.90;;;;;;5034825;28;20573;-79
2023/03/10 10:08:33;;;;;;;0.50;0.50;;;3.10;99.90;;;;;;5044683;28;20434;-80
2023/03/10 10:11:02;;;;;;;0.40;0.40;;;2.90;99.90;;;;;;5032203;28;20865;-79
2023/03/10 10:13:29;;;;;;;0.40;0.40;;;2.90;99.90;;;;;;5041984;28;20435;-79
2023/03/10 10:16:28;;;;;;;0.50;0.50;;;3.00;99.90;;;;;;5033400;28;20780;-79
2023/03/10 10:19:01;;;;;;;0.40;0.40;;;3.00;99.90;;;;;;5033228;28;20458;-79
2023/03/10 10:21:43;;;;;;;0.40;0.40;;;3.00;99.90;;;;;;5031542;28;20447;-79
2023/03/10 10:24:09;;;;;;;0.40;0.40;;;3.00;99.90;;;;;;5047403;28;20433;-79
2023/03/10 10:26:34;;;;;;;0.40;0.40;;;2.90;99.90;;;;;;5052392;28;20481;-79
2023/03/10 10:29:10;;;;;;;0.47;0.47;;;2.80;99.90;;;;;;5045416;28;20800;-79
2023/03/10 10:31:36;;;;;;;0.40;0.40;;;2.80;99.90;;;;;;5027946;28;20195;-79
2023/03/10 10:34:03;;;;;;;0.40;0.40;;;2.70;99.90;;;;;;5032151;28;20464;-79
2023/03/10 10:36:35;;;;;;;0.40;0.40;;;2.70;99.90;;;;;;5027503;28;20192;-79
2023/03/10 10:39:03;;;;;;;0.43;0.43;;;2.80;99.90;;;;;;5032401;28;20434;-79
2023/03/10 10:42:10;;;;;;;0.43;0.43;;;2.90;99.90;;;;;;5030750;28;20855;-79
2023/03/10 10:44:44;;;;;;;0.40;0.40;;;3.00;99.90;;;;;;5042565;28;20535;-79
2023/03/10 10:47:45;;;;;;;0.40;0.40;;;3.00;99.90;;;;;;5051234;28;20456;-79
2023/03/10 10:50:24;;;;;;;0.40;0.40;;;3.00;99.90;;;;;;5010091;28;20525;-79
2023/03/10 10:53:11;;;;;;;0.40;0.40;;;3.00;99.90;;;;;;5029762;28;20964;-79
2023/03/10 10:55:37;;;;;;;0.50;0.50;;;3.00;99.90;;;;;;5037302;28;20446;-79
2023/03/10 10:58:21;;;;;;;0.50;0.50;;;3.20;99.90;;;;;;5036658;28;21022;-80
2023/03/10 11:00:57;;;;;;;0.40;0.40;;;3.10;99.90;;;;;;5028454;28;20496;-79
2023/03/10 11:03:38;;;;;;;0.40;0.40;;;3.00;99.90;;;;;;5020640;28;20441;-79
2023/03/10 11:06:27;;;;;;;0.40;0.40;;;3.00;99.90;;;;;;5016269;28;20479;-79
2023/03/10 11:09:10;;;;;;;0.50;0.50;;;3.10;99.90;;;;;;5023260;28;20453;-79
2023/03/10 11:11:43;;;;;;;0.50;0.50;;;3.00;99.90;;;;;;5023477;28;20444;-79
2023/03/10 11:14:16;;;;;;;0.47;0.47;;;3.00;99.90;;;;;;5029740;28;20442;-79
2023/03/10 11:16:58;;;;;;;0.50;0.50;;;2.90;99.90;;;;;;5016849;28;20446;-79
2023/03/10 11:19:50;;;;;;;0.40;0.40;;;3.00;99.90;;;;;;5039863;28;20441;-78
2023/03/10 11:22:32;;;;;;;0.40;0.40;;;2.90;99.90;;;;;;5029526;28;20546;-77
2023/03/10 11:25:14;;;;;;;0.50;0.50;;;3.10;99.90;;;;;;5032343;28;20556;-78
2023/03/10 11:28:03;;;;;;;0.50;0.50;;;3.10;99.90;;;;;;5026002;28;20458;-78
2023/03/10 11:30:39;;;;;;;0.50;0.50;;;3.20;99.90;;;;;;5044673;28;20441;-78
2023/03/10 11:33:14;;;;;;;0.40;0.40;;;3.20;99.90;;;;;;5025764;28;20801;-77
2023/03/10 11:35:44;;;;;;;0.50;0.50;;;3.40;99.90;;;;;;5042747;28;20429;-78
2023/03/10 11:38:29;;;;;;;0.40;0.40;;;3.40;99.90;;;;;;5038469;28;21024;-77
2023/03/10 11:41:00;;;;;;;0.30;0.30;;;3.40;99.90;;;;;;5027290;28;21164;-77
2023/03/10 11:43:47;;;;;;;0.40;0.40;;;3.40;99.90;;;;;;5032208;28;20489;-78
2023/03/10 11:46:34;;;;;;;0.40;0.40;;;3.40;99.90;;;;;;5027329;28;20504;-78
2023/03/10 11:49:06;;;;;;;0.40;0.40;;;3.50;99.90;;;;;;5036298;28;20445;-78
2023/03/10 11:51:40;;;;;;;0.50;0.50;;;3.40;99.90;;;;;;5022465;28;20482;-78
2023/03/10 11:54:15;;;;;;;0.40;0.40;;;3.30;99.90;;;;;;5026990;28;20525;-77
2023/03/10 11:56:41;;;;;;;0.40;0.40;;;3.40;99.90;;;;;;5031742;28;20446;-77
2023/03/10 11:59:27;;;;;;;0.40;0.40;;;3.40;99.90;;;;;;5025234;28;20452;-77
2023/03/10 12:02:05;;;;;;;0.40;0.40;;;3.40;99.90;;;;;;5024088;28;20442;-77
2023/03/10 12:05:32;;;;;;;0.40;0.40;;;3.40;99.90;;;;;;5042534;28;20499;-78
2023/03/10 12:07:43;;;;;;;0.40;0.40;;;3.40;99.90;;;;;;5016955;28;20457;-78
2023/03/10 12:10:11;;;;;;;0.40;0.40;;;3.40;99.90;;;;;;5027843;28;20442;-79
2023/03/10 12:12:43;;;;;;;0.40;0.40;;;3.50;99.90;;;;;;5027401;28;20976;-77
2023/03/10 12:15:19;;;;;;;0.30;0.30;;;3.70;99.90;;;;;;5026035;28;20454;-77
2023/03/10 12:17:45;;;;;;;0.30;0.30;;;4.10;99.90;;;;;;5011611;28;20488;-78
2023/03/10 12:20:14;;;;;;;0.23;0.23;;;4.10;99.90;;;;;;5030955;28;20456;-78
2023/03/10 12:22:50;;;;;;;0.23;0.23;;;4.00;99.90;;;;;;5032860;28;20441;-78
2023/03/10 12:25:41;;;;;;;0.40;0.40;;;4.00;99.90;;;;;;5024855;28;20960;-78
2023/03/10 12:28:16;;;;;;;0.40;0.40;;;3.90;99.90;;;;;;5024805;28;20446;-78
2023/03/10 12:30:56;;;;;;;0.30;0.30;;;3.70;99.90;;;;;;5024492;28;20450;-78
2023/03/10 12:33:36;;;;;;;0.40;0.40;;;3.60;99.90;;;;;;5022539;28;20529;-78
2023/03/10 12:36:20;;;;;;;0.40;0.40;;;3.50;99.90;;;;;;5014112;28;20459;-77
2023/03/10 12:39:18;;;;;;;0.40;0.40;;;3.60;99.90;;;;;;5013022;28;20511;-78
2023/03/10 12:41:46;;;;;;;0.33;0.33;;;3.40;99.90;;;;;;5030239;28;21298;-78
2023/03/10 12:44:43;;;;;;;0.40;0.40;;;3.40;99.90;;;;;;5027821;28;21046;-77
2023/03/10 12:47:17;;;;;;;0.40;0.40;;;3.50;99.90;;;;;;5028618;28;20965;-78
2023/03/10 12:49:54;;;;;;;0.50;0.50;;;3.50;99.90;;;;;;5027855;28;20557;-78
2023/03/10 12:52:47;;;;;;;0.40;0.40;;;3.50;99.90;;;;;;5030089;28;20869;-77
2023/03/10 12:55:23;;;;;;;0.40;0.40;;;3.60;99.90;;;;;;5027911;28;20454;-77
2023/03/10 12:57:55;;;;;;;0.40;0.40;;;3.70;99.90;;;;;;5032993;28;20441;-77
2023/03/10 13:00:47;;;;;;;0.40;0.40;;;3.80;99.90;;;;;;5042486;28;20456;-78
2023/03/10 13:03:36;;;;;;;0.30;0.30;;;4.00;99.90;;;;;;5011257;28;20419;-78
2023/03/10 13:06:17;;;;;;;0.20;0.20;;;4.10;99.90;;;;;;5015810;28;20486;-78
2023/03/10 13:08:46;;;;;;;0.30;0.30;;;4.10;99.90;;;;;;5026607;28;20445;-78
2023/03/10 13:11:24;;;;;;;0.30;0.30;;;3.90;99.90;;;;;;5027826;28;20937;-77